Pembroke, NC

8:13 PM EDT on September 18, 2014 (GMT -0400)
RAWS LUMBERTON NC US | Change Station
CLOSE
Current Station
Personal Weather Station
Location: Lumberton, NC
Elevation: 120 ft
Nearby Weather Stations

Elev 120 ft 34.60 °N, 79.08 °W | Updated 33 minutes ago

Clear
Clear
74 °F
Feels Like 75 °F
N
4
Wind Variable Wind from SE
Gusts 6.0 mph

Today
High -- | Low -- °F
--% Chance of Precip.
Yesterday
High -- | Low -- °F
Precip. -- in
7:01 AM 7:19 PM
Waning Crescent, 23% visible
Pressure 29.97 in
Visibility 10.0 miles
Clouds Clear
Heat Index 75 °F
Dew Point 65 °F
Humidity 73%
Rainfall 0.38 in
Snow Depth Not available.
UV 0 out of 12
Pollen 8.60 out of 12
Ozone Good
PM2.5 Good
Flu Activity Not available.
METAR KLBT 182354Z AUTO 14004KT 10SM CLR 23/19 A2997 RMK AO2 SLP148 T02280189 10289 20228 53007

More Conditions Fewer Conditions

Pressure 29.97 in
Visibility 10.0 miles
Clouds Clear
Heat Index 75 °F
Dew Point 65 °F
Humidity 73%
Rainfall 0.38 in
Snow Depth Not available.
UV 0 out of 12
Pollen 8.60 out of 12
Ozone Good
PM2.5 Good
Flu Activity Not available.
METAR KLBT 182354Z AUTO 14004KT 10SM CLR 23/19 A2997 RMK AO2 SLP148 T02280189 10289 20228 53007

More Conditions Fewer Conditions

10-Day Weather Forecast

Almanac

Astronomy

Sep. 18, 2014 Rise Set
Actual Time 7:01 AM EDT 7:19 PM EDT
Civil Twilight 6:36 AM EDT 7:44 PM EDT
Nautical Twilight 6:07 AM EDT 8:13 PM EDT
Astronomical Twilight 5:37 AM EDT 8:43 PM EDT
Moon 2:01 AM EDT (9/18) 4:00 PM EDT (9/18)
Length of Visible Light 13h 07m
Length of Day
12h 17m
Tomorrow will be 2m 9s shorter.
Waning Crescent, 23% of the Moon is Illuminated
Today
Waning Crescent
Sep 24
New
Oct 1
First Quarter
Oct 8
Full
Oct 15
Last Quarter

Today's Extremes

State Highs State Lows

Community

WunderPhotos

Upload Photos

1,754,501 photos uploaded!

WunderBlogs® & News

Nearby

Air Quality

  Air Quality AQ Index Pollutant
Yesterday Good
OZONE
Yesterday Good
PM2.5
Current Good
OZONE
Current Good
PM2.5
Thursday Good
PM2.5
Thursday Good
OZONE
Friday Good
PM2.5
Friday Good
OZONE
Saturday Good
PM2.5
Saturday Good
OZONE
Sunday Good
PM2.5
Sunday Good
OZONE

Snow Depth

Station Depth Elevation
No new snow has been reported.

Earthquake Activity

City Distance Mag. Time & Date
No recent earthquake activity has been reported nearby.
Minimum magnitude displayed is 2.5.

Coastal Water Temperatures

Place Temperature
No Stations Reporting

Nearby Weather Stations